Time;durP1;ratioP1;P1;durP2;ratioP2;P2;SDS_P1;SDS_P2;PMS_P1;PMS_P2;Temp;Humidity;BMP_temperature;BMP_pressure;BME280_temperature;BME280_humidity;BME280_pressure;Samples;Min_cycle;Max_cycle;Signal;HPM_P1;HPM_P2
2021/07/19 07:44:36;;;;;;;25.8;17.3;;;;;;;31.01;39.37793;940.3514;;;;
2021/07/19 07:47:05;;;;;;;6.8;5.9;;;;;;;30;43.57422;940.3421;;;;
2021/07/19 07:49:30;;;;;;;6.9;6.2;;;;;;;29.81;46.0957;940.3414;;;;
2021/07/19 07:51:58;;;;;;;9.6;6.4;;;;;;;32.35;38.3916;940.3256;;;;
2021/07/19 07:54:23;;;;;;;8.8;6.6;;;;;;;32.89;38.3291;940.3555;;;;
2021/07/19 07:56:52;;;;;;;9.8;6.3;;;;;;;32.68;37.03906;940.3221;;;;
2021/07/19 07:59:17;;;;;;;6.9;6.2;;;;;;;33.2;36.75684;940.301;;;;
2021/07/19 08:01:47;;;;;;;8.8;6.8;;;;;;;32.19;39.07324;940.2633;;;;
2021/07/19 08:04:17;;;;;;;8.7;6.6;;;;;;;32.78;38.41504;940.2625;;;;
2021/07/19 08:06:43;;;;;;;9.4;6.7;;;;;;;33.06;37.23828;940.2586;;;;
2021/07/19 08:09:11;;;;;;;10;6.2;;;;;;;33.79;36.10645;940.2308;;;;
2021/07/19 08:11:37;;;;;;;9.4;6.6;;;;;;;34.67;35.65723;940.1395;;;;
2021/07/19 08:14:03;;;;;;;8.4;7;;;;;;;35.48;33.42578;940.1592;;;;
2021/07/19 08:16:39;;;;;;;10.5;6.8;;;;;;;35.75;33.20508;940.1181;;;;
2021/07/19 08:19:06;;;;;;;9.8;6.9;;;;;;;31.41;38.89941;940.0955;;;;
2021/07/19 08:21:32;;;;;;;9.5;7.3;;;;;;;31.78;39.69629;940.0714;;;;
2021/07/19 08:24:03;;;;;;;9.3;7.6;;;;;;;32.49;37.70801;940.0787;;;;
2021/07/19 08:26:34;;;;;;;9.2;6.4;;;;;;;33.72;37.19531;940.0051;;;;
2021/07/19 08:29:06;;;;;;;11.1;6.8;;;;;;;35.08;33.6875;940.033;;;;
2021/07/19 08:31:40;;;;;;;9.5;6.8;;;;;;;34.76;34.23047;940.0396;;;;
2021/07/19 08:34:04;;;;;;;10.3;6.9;;;;;;;34.57;36.84375;940.0011;;;;
2021/07/19 08:36:31;;;;;;;10.2;7.5;;;;;;;35.15;33.33105;939.9508;;;;
2021/07/19 08:39:02;;;;;;;9.5;7.2;;;;;;;34.72;34.66113;939.9417;;;;
2021/07/19 08:41:32;;;;;;;9;7.1;;;;;;;34.2;35.92188;939.8549;;;;
2021/07/19 08:43:57;;;;;;;10.3;7.9;;;;;;;35.76;34.03906;939.8978;;;;
2021/07/19 08:46:24;;;;;;;10.4;7.9;;;;;;;33.09;38.56152;939.8892;;;;
2021/07/19 08:48:52;;;;;;;9.1;7.8;;;;;;;32.82;37.2666;939.8674;;;;
2021/07/19 08:51:19;;;;;;;10.5;7.4;;;;;;;33.06;38.54688;939.8321;;;;
2021/07/19 08:53:50;;;;;;;10.7;7.4;;;;;;;33.26;38.66016;939.8224;;;;
2021/07/19 08:56:15;;;;;;;9.9;7.7;;;;;;;33.56;37.65137;939.8371;;;;
2021/07/19 08:58:40;;;;;;;10.5;8.7;;;;;;;33.45;37.17383;939.7972;;;;
2021/07/19 09:01:08;;;;;;;10.6;8.3;;;;;;;32.67;39.10254;939.7883;;;;
2021/07/19 09:03:33;;;;;;;11;8.1;;;;;;;33.55;38.90137;939.7639;;;;
2021/07/19 09:06:03;;;;;;;9.4;7.8;;;;;;;33.89;37.36621;939.7181;;;;
2021/07/19 09:08:28;;;;;;;10.9;8.4;;;;;;;32.46;40.98047;939.759;;;;
2021/07/19 09:10:59;;;;;;;11.2;9;;;;;;;33.94;38.03223;939.7025;;;;
2021/07/19 09:13:24;;;;;;;12.1;9.1;;;;;;;33.6;37.19727;939.6982;;;;
2021/07/19 09:16:01;;;;;;;11.9;9.1;;;;;;;32.73;37.52344;939.7073;;;;
2021/07/19 09:18:29;;;;;;;11.8;9.2;;;;;;;33.91;34.38281;939.6663;;;;
2021/07/19 09:20:53;;;;;;;11.5;9.5;;;;;;;32.37;37.87695;939.7081;;;;
2021/07/19 09:23:21;;;;;;;11.7;9.4;;;;;;;33.6;35.94727;939.5491;;;;
2021/07/19 09:25:46;;;;;;;11.6;8.8;;;;;;;33.98;36.22949;939.5664;;;;
2021/07/19 09:28:14;;;;;;;12.7;9.5;;;;;;;32.21;40.56152;939.6027;;;;
2021/07/19 09:30:39;;;;;;;13.4;9.6;;;;;;;31.25;42.65234;939.5508;;;;
2021/07/19 09:33:09;;;;;;;12.1;9.5;;;;;;;29.94;46.24023;939.5454;;;;
2021/07/19 09:35:42;;;;;;;12.6;9.6;;;;;;;30.94;42.39648;939.5432;;;;
2021/07/19 09:38:09;;;;;;;13.3;10;;;;;;;32.2;40.83691;939.5491;;;;
2021/07/19 09:40:34;;;;;;;12.2;8.7;;;;;;;32.98;38.43164;939.5046;;;;
2021/07/19 09:43:03;;;;;;;12.7;9.5;;;;;;;33.15;38.03906;939.5197;;;;
2021/07/19 09:45:28;;;;;;;11.8;9.4;;;;;;;32.46;40.90723;939.4752;;;;
2021/07/19 09:47:56;;;;;;;14;10.1;;;;;;;31.84;40.93555;939.4474;;;;
2021/07/19 09:50:26;;;;;;;13.3;9.6;;;;;;;30.66;45.20215;939.4088;;;;
2021/07/19 09:52:52;;;;;;;12;9.7;;;;;;;31.57;41.89355;939.3761;;;;
2021/07/19 09:55:17;;;;;;;14.9;9.8;;;;;;;31.79;42.84766;939.4052;;;;
2021/07/19 09:57:42;;;;;;;16;9.5;;;;;;;31.66;40.94336;939.3275;;;;
2021/07/19 10:00:14;;;;;;;11.4;8.7;;;;;;;31.43;42.26367;939.2808;;;;
2021/07/19 10:02:41;;;;;;;12.1;9.3;;;;;;;31.66;44.02051;939.3176;;;;
2021/07/19 10:05:09;;;;;;;11.2;9.2;;;;;;;30.66;48.10645;939.2676;;;;
2021/07/19 10:07:34;;;;;;;16.6;9.6;;;;;;;30.77;44.93848;939.2927;;;;
2021/07/19 10:09:59;;;;;;;12.3;9;;;;;;;29.84;48.88965;939.3206;;;;
2021/07/19 10:12:25;;;;;;;11.1;9.2;;;;;;;30;46.50879;939.2849;;;;
2021/07/19 10:14:53;;;;;;;13.8;9.1;;;;;;;31.14;42.25977;939.3412;;;;
2021/07/19 10:17:18;;;;;;;14.7;10.4;;;;;;;29.85;46.79102;939.2935;;;;
2021/07/19 10:19:48;;;;;;;13.8;9.8;;;;;;;28.16;54.68555;939.2601;;;;
2021/07/19 10:22:13;;;;;;;17.6;10.9;;;;;;;29.11;49.21582;939.2594;;;;
2021/07/19 10:24:39;;;;;;;14;9.8;;;;;;;28.8;52.44238;939.2434;;;;
2021/07/19 10:27:04;;;;;;;13.3;9.3;;;;;;;29.5;49.33008;939.2241;;;;
2021/07/19 10:29:29;;;;;;;13.5;9.6;;;;;;;30.4;46.34668;939.223;;;;
2021/07/19 10:31:58;;;;;;;12.8;9.7;;;;;;;30.65;45.79883;939.2319;;;;
2021/07/19 10:34:27;;;;;;;10.5;9.1;;;;;;;30.81;44.9668;939.2189;;;;
2021/07/19 10:36:52;;;;;;;10.7;9;;;;;;;30.5;45.50977;939.2327;;;;
2021/07/19 10:39:19;;;;;;;16.9;9.8;;;;;;;30.37;45.88965;939.2283;;;;
2021/07/19 10:41:46;;;;;;;10.9;9.3;;;;;;;30.02;47.01172;939.2964;;;;
2021/07/19 10:44:14;;;;;;;19.2;10.2;;;;;;;29.75;47.36426;939.2083;;;;
2021/07/19 10:46:41;;;;;;;13.7;9.2;;;;;;;29.89;47.54785;939.1897;;;;
2021/07/19 10:49:04;;;;;;;11.1;8.7;;;;;;;29.56;48.89551;939.1638;;;;
2021/07/19 10:51:31;;;;;;;12.8;9;;;;;;;29.46;48.39551;939.144;;;;
2021/07/19 10:53:56;;;;;;;11.9;8.1;;;;;;;28.82;51.12402;939.1691;;;;
2021/07/19 10:56:23;;;;;;;12.5;9.3;;;;;;;28.98;50.74805;939.1194;;;;
2021/07/19 10:58:48;;;;;;;12.9;9.9;;;;;;;29.67;50.87402;939.1239;;;;
2021/07/19 11:01:16;;;;;;;12;9.1;;;;;;;29.36;50.48242;939.0945;;;;
2021/07/19 11:03:41;;;;;;;13.3;9.4;;;;;;;29.7;48.25391;939.0622;;;;
2021/07/19 11:06:10;;;;;;;12.1;9.1;;;;;;;27.6;55.47168;939.0728;;;;
2021/07/19 11:08:36;;;;;;;10.9;9;;;;;;;26.88;56.80469;939.0919;;;;
2021/07/19 11:11:01;;;;;;;12.2;9.2;;;;;;;26.7;57.55273;939.0917;;;;
2021/07/19 11:13:29;;;;;;;12.9;9.5;;;;;;;27.32;55.06934;939.1647;;;;
2021/07/19 11:16:00;;;;;;;12.4;8.7;;;;;;;27.79;56.64648;939.1005;;;;
2021/07/19 11:18:28;;;;;;;12;8.7;;;;;;;28.18;52.25195;939.109;;;;
2021/07/19 11:20:57;;;;;;;11.4;8.6;;;;;;;27.47;58.45801;939.0784;;;;
2021/07/19 11:23:22;;;;;;;11.6;8.5;;;;;;;28.16;53.54395;939.0404;;;;
2021/07/19 11:25:52;;;;;;;13.4;8.6;;;;;;;27.98;55.7793;938.9821;;;;
2021/07/19 11:28:19;;;;;;;13.1;9.1;;;;;;;27.49;55.58887;938.9775;;;;
2021/07/19 11:30:45;;;;;;;12.7;8.7;;;;;;;27.82;55.33203;938.9361;;;;
2021/07/19 11:33:10;;;;;;;14.5;9.5;;;;;;;27.64;56.46191;938.9507;;;;
2021/07/19 11:35:35;;;;;;;11.2;8.7;;;;;;;27.01;58.25586;938.8858;;;;
2021/07/19 11:38:05;;;;;;;11.2;9.1;;;;;;;26.71;60.18164;938.8814;;;;
2021/07/19 11:40:26;;;;;;;11.5;8.7;;;;;;;27.41;55.41309;938.8417;;;;
2021/07/19 11:42:52;;;;;;;13;9.4;;;;;;;27.52;55.36719;938.8246;;;;
2021/07/19 11:45:18;;;;;;;10.8;7.8;;;;;;;27.42;56.55273;938.8044;;;;
2021/07/19 11:47:43;;;;;;;14.5;9.2;;;;;;;27.06;57.29102;938.8301;;;;
2021/07/19 11:50:08;;;;;;;10.9;8.5;;;;;;;26.77;58.91211;938.7849;;;;
2021/07/19 11:52:33;;;;;;;13.3;8.6;;;;;;;26.56;59.25098;938.7636;;;;
2021/07/19 11:54:58;;;;;;;14.9;8.8;;;;;;;26.66;59.66699;938.7305;;;;
2021/07/19 11:57:24;;;;;;;10.9;8.4;;;;;;;27.32;54.39355;938.6944;;;;
2021/07/19 11:59:49;;;;;;;12.6;8.4;;;;;;;27.46;55.11133;938.673;;;;
2021/07/19 12:02:17;;;;;;;12.5;8.5;;;;;;;26.72;58.8457;938.7165;;;;
2021/07/19 12:04:42;;;;;;;11.9;8.8;;;;;;;26.36;59.83887;938.6595;;;;
2021/07/19 12:07:07;;;;;;;10.1;8;;;;;;;26.54;58.1709;938.6667;;;;
2021/07/19 12:09:35;;;;;;;12.8;8.8;;;;;;;26.98;56.84082;938.6746;;;;
2021/07/19 12:12:00;;;;;;;10.3;8.4;;;;;;;26.81;57.24512;938.6414;;;;
2021/07/19 12:14:31;;;;;;;10.7;8.3;;;;;;;26.81;56.86621;938.6316;;;;
2021/07/19 12:17:05;;;;;;;12.7;8.7;;;;;;;26.9;58.14551;938.5759;;;;
2021/07/19 12:19:29;;;;;;;10.2;8.5;;;;;;;27.34;55.66602;938.5535;;;;
2021/07/19 12:21:55;;;;;;;11.5;8.1;;;;;;;27.72;52.61426;938.5444;;;;
2021/07/19 12:24:22;;;;;;;12.9;8.8;;;;;;;27.15;58.00098;938.536;;;;
2021/07/19 12:26:46;;;;;;;11.8;8;;;;;;;26.48;57.77246;938.4339;;;;
2021/07/19 12:29:15;;;;;;;11.4;8.4;;;;;;;26.24;60.4043;938.4914;;;;
2021/07/19 12:31:40;;;;;;;12.5;8.6;;;;;;;26.1;61.98145;938.4703;;;;
2021/07/19 12:34:07;;;;;;;11;8.1;;;;;;;25.94;59.72559;938.4005;;;;
2021/07/19 12:36:34;;;;;;;10.1;8.1;;;;;;;26.15;56.68848;938.334;;;;
2021/07/19 12:39:03;;;;;;;11.7;8.7;;;;;;;26.48;56.97949;938.3826;;;;
2021/07/19 12:41:28;;;;;;;13.8;8.6;;;;;;;26.28;60.26563;938.3041;;;;
2021/07/19 12:43:53;;;;;;;10.5;7.6;;;;;;;25.88;60.23633;938.2651;;;;
2021/07/19 12:46:18;;;;;;;11.3;8.7;;;;;;;25.69;60.74219;938.2665;;;;
2021/07/19 12:48:47;;;;;;;13.3;8.8;;;;;;;26;58.38477;938.257;;;;
2021/07/19 12:51:16;;;;;;;12.5;8.3;;;;;;;26.6;57.76367;938.2505;;;;
2021/07/19 12:53:45;;;;;;;12.9;8.7;;;;;;;26.81;55.16016;938.1658;;;;
2021/07/19 12:56:10;;;;;;;11.5;8.5;;;;;;;26.77;55.25098;938.2098;;;;
2021/07/19 12:58:40;;;;;;;12.8;8.8;;;;;;;26.01;58.7998;938.1579;;;;
2021/07/19 13:01:05;;;;;;;13;8.8;;;;;;;26.38;57.52246;938.188;;;;
2021/07/19 13:03:35;;;;;;;12.9;8.1;;;;;;;26.18;58.50293;938.1559;;;;
2021/07/19 13:06:01;;;;;;;12.1;8.6;;;;;;;26.7;56.16699;938.1561;;;;
2021/07/19 13:08:26;;;;;;;12.8;8.6;;;;;;;26.55;56.10059;938.1067;;;;
2021/07/19 13:10:55;;;;;;;11.3;8;;;;;;;26.15;58.19141;938.1395;;;;
2021/07/19 13:13:25;;;;;;;12.5;8;;;;;;;26.47;54.04102;938.1316;;;;
2021/07/19 13:15:56;;;;;;;10.6;7.4;;;;;;;26.5;54.7207;938.0628;;;;
2021/07/19 13:18:28;;;;;;;10.1;7.9;;;;;;;26.69;55.24023;938.1445;;;;
2021/07/19 13:21:00;;;;;;;10.8;7.9;;;;;;;26.71;55.97754;938.0955;;;;
2021/07/19 13:23:25;;;;;;;10.5;7.6;;;;;;;26.15;56.93652;938.0458;;;;
2021/07/19 13:25:59;;;;;;;9.6;7.6;;;;;;;26.89;51.99512;938.1041;;;;
2021/07/19 13:28:27;;;;;;;10.7;7.1;;;;;;;27.08;51.67383;938.0655;;;;
2021/07/19 13:30:53;;;;;;;10.6;7.2;;;;;;;26.43;53.33887;938.0034;;;;
2021/07/19 13:33:18;;;;;;;12.7;7.7;;;;;;;26.64;54.2041;938.0313;;;;
2021/07/19 13:35:44;;;;;;;10.5;7.2;;;;;;;26.79;51.86621;938.027;;;;
2021/07/19 13:38:09;;;;;;;10.8;7.2;;;;;;;27.09;49.79004;937.9658;;;;
2021/07/19 13:40:38;;;;;;;11.9;7.6;;;;;;;26.71;54.40234;937.9964;;;;
2021/07/19 13:43:03;;;;;;;12.5;8.3;;;;;;;26.75;53.83789;938.019;;;;
2021/07/19 13:45:31;;;;;;;11.3;7.4;;;;;;;26.68;54.41016;937.9973;;;;
2021/07/19 13:47:57;;;;;;;12.9;7.8;;;;;;;26.51;54.67383;938.005;;;;
2021/07/19 13:50:23;;;;;;;10;7.1;;;;;;;26.71;53.04004;937.9752;;;;
2021/07/19 13:52:49;;;;;;;10;7.3;;;;;;;26.71;53.85742;938.0081;;;;
2021/07/19 13:55:15;;;;;;;9.8;7.2;;;;;;;27.12;51.67676;937.9147;;;;
2021/07/19 13:57:41;;;;;;;10.4;7;;;;;;;27.11;51.45215;937.93;;;;
2021/07/19 14:00:14;;;;;;;10.5;7.5;;;;;;;26.9;51.93652;937.8477;;;;
2021/07/19 14:02:39;;;;;;;9.9;7.1;;;;;;;26.31;52.42383;937.9034;;;;
2021/07/19 14:05:04;;;;;;;10.7;6.6;;;;;;;26.47;51.69824;937.9069;;;;
2021/07/19 14:07:31;;;;;;;9.4;7.2;;;;;;;26.49;50.64648;937.8643;;;;
2021/07/19 14:09:56;;;;;;;10.4;7;;;;;;;26.86;50.34473;937.8979;;;;
2021/07/19 14:12:23;;;;;;;12.4;7.7;;;;;;;26.66;52.54883;937.8976;;;;
2021/07/19 14:14:48;;;;;;;13.2;7.7;;;;;;;26.75;51.33789;937.8964;;;;
2021/07/19 14:17:13;;;;;;;10.9;7.1;;;;;;;26.84;51.65723;937.9226;;;;
2021/07/19 14:19:42;;;;;;;9.5;6.9;;;;;;;27.06;50.03613;937.8613;;;;
2021/07/19 14:22:07;;;;;;;12.1;7.3;;;;;;;27.23;49.85254;937.9084;;;;
2021/07/19 14:24:35;;;;;;;10.3;7;;;;;;;27;50.7998;937.9247;;;;
2021/07/19 14:27:01;;;;;;;10.5;7;;;;;;;26.77;50.52441;937.8993;;;;
2021/07/19 14:29:27;;;;;;;10;7;;;;;;;26.86;49.87109;937.8848;;;;
2021/07/19 14:31:53;;;;;;;9.6;7.1;;;;;;;26.84;50.5791;937.8973;;;;
2021/07/19 14:34:20;;;;;;;12.8;7.2;;;;;;;26.6;52.43457;937.824;;;;
2021/07/19 14:36:44;;;;;;;12;7.6;;;;;;;26.38;52.32715;937.8353;;;;
2021/07/19 14:39:10;;;;;;;8.3;6.6;;;;;;;26.75;50.58008;937.8425;;;;
2021/07/19 14:41:35;;;;;;;8.5;6.4;;;;;;;26.95;48.22168;937.8311;;;;
2021/07/19 14:44:03;;;;;;;10.2;7.1;;;;;;;27.1;48.96094;937.8622;;;;
2021/07/19 14:46:29;;;;;;;10.1;7.4;;;;;;;26.9;50.77539;937.8354;;;;
2021/07/19 14:49:01;;;;;;;9.3;7;;;;;;;27;49.75586;937.7654;;;;
2021/07/19 14:51:36;;;;;;;8.4;6.7;;;;;;;26.83;49.14453;937.776;;;;
2021/07/19 14:54:04;;;;;;;11.7;7.3;;;;;;;26.96;49.88184;937.7684;;;;
2021/07/19 14:56:29;;;;;;;10;6.4;;;;;;;26.73;50.82813;937.71;;;;
2021/07/19 14:58:55;;;;;;;9.6;6.8;;;;;;;26.88;51.99512;937.7128;;;;
2021/07/19 15:01:20;;;;;;;10.2;6.5;;;;;;;27.13;48.94141;937.769;;;;
2021/07/19 15:03:47;;;;;;;10.1;6.6;;;;;;;26.94;49.10938;937.7483;;;;
2021/07/19 15:06:12;;;;;;;12.5;6.8;;;;;;;26.93;49.14258;937.7358;;;;
2021/07/19 15:08:38;;;;;;;11;7.6;;;;;;;26.81;49.72363;937.7988;;;;
2021/07/19 15:11:03;;;;;;;12.5;6.8;;;;;;;26.63;52.52246;937.7269;;;;
2021/07/19 15:13:32;;;;;;;9;6.9;;;;;;;26.49;50.36328;937.7928;;;;
2021/07/19 15:16:02;;;;;;;12.7;7.4;;;;;;;26.74;49.56055;937.7964;;;;
2021/07/19 15:18:32;;;;;;;10.6;6.9;;;;;;;26.22;53.77441;937.7795;;;;
2021/07/19 15:21:02;;;;;;;14.6;8.3;;;;;;;26.05;54.42871;937.7842;;;;
2021/07/19 15:23:27;;;;;;;16.7;9.1;;;;;;;25.92;53.37305;937.782;;;;
2021/07/19 15:25:56;;;;;;;9.9;6.9;;;;;;;26.18;53.0957;937.8049;;;;
2021/07/19 15:28:22;;;;;;;10.4;7.2;;;;;;;26.45;53.57813;937.7933;;;;
2021/07/19 15:30:52;;;;;;;11.8;6.8;;;;;;;26.26;51.7334;937.8323;;;;
2021/07/19 15:33:20;;;;;;;12.2;7.2;;;;;;;26.27;52.03027;937.7511;;;;
2021/07/19 15:35:53;;;;;;;9.9;6.9;;;;;;;25.99;54.01953;937.8276;;;;
2021/07/19 15:38:18;;;;;;;9.7;6.8;;;;;;;25.97;50.92969;937.8019;;;;
2021/07/19 15:40:48;;;;;;;10.8;6.7;;;;;;;25.77;52.95313;937.8374;;;;
2021/07/19 15:43:13;;;;;;;8.8;6;;;;;;;25.54;54.54395;937.8223;;;;
2021/07/19 15:45:39;;;;;;;10.6;6.5;;;;;;;25.39;55.08203;937.7804;;;;
2021/07/19 15:48:04;;;;;;;12.8;7.2;;;;;;;25.42;55.34375;937.767;;;;
2021/07/19 15:50:32;;;;;;;11.9;6.8;;;;;;;25.72;52.75684;937.8223;;;;
2021/07/19 15:52:58;;;;;;;9.3;6.3;;;;;;;25.39;54.84473;937.7392;;;;
2021/07/19 15:55:23;;;;;;;11.9;6.2;;;;;;;25.65;53.63574;937.7813;;;;
2021/07/19 15:57:48;;;;;;;8.6;6;;;;;;;25.95;54.08496;937.7516;;;;
2021/07/19 16:00:14;;;;;;;10;6.1;;;;;;;26.1;53.03906;937.767;;;;
2021/07/19 16:02:41;;;;;;;10.8;6.5;;;;;;;25.89;53.44043;937.7169;;;;
2021/07/19 16:05:10;;;;;;;12.2;5.9;;;;;;;25.96;53.2832;937.7303;;;;
2021/07/19 16:07:38;;;;;;;8.6;6.2;;;;;;;26.19;52.37598;937.7541;;;;
2021/07/19 16:10:04;;;;;;;8.1;6.1;;;;;;;26.29;51.95996;937.6987;;;;
2021/07/19 16:12:30;;;;;;;9.9;5.9;;;;;;;26.14;52.47559;937.8;;;;
2021/07/19 16:14:55;;;;;;;9.5;6.6;;;;;;;26.33;52.26074;937.7609;;;;
2021/07/19 16:17:20;;;;;;;12.2;6.4;;;;;;;26.3;50.28223;937.7634;;;;
2021/07/19 16:19:49;;;;;;;7.7;5.5;;;;;;;26.03;50.55859;937.7622;;;;
2021/07/19 16:22:14;;;;;;;8.3;5.8;;;;;;;26.09;50.71973;937.8204;;;;
2021/07/19 16:24:43;;;;;;;10.1;6.3;;;;;;;26.1;50.4248;937.7662;;;;
2021/07/19 16:27:08;;;;;;;11.3;6.2;;;;;;;26.2;50.55469;937.8058;;;;
2021/07/19 16:29:36;;;;;;;8.3;6;;;;;;;26.11;51.00586;937.7142;;;;
2021/07/19 16:32:01;;;;;;;10.1;6;;;;;;;26;50.80371;937.7332;;;;
2021/07/19 16:34:32;;;;;;;11.2;6;;;;;;;25.99;49.86816;937.7234;;;;
2021/07/19 16:37:01;;;;;;;10;6.1;;;;;;;25.91;50.35645;937.7838;;;;
2021/07/19 16:39:26;;;;;;;9.8;5;;;;;;;26.01;50.66309;937.7867;;;;
2021/07/19 16:41:53;;;;;;;10.5;5.9;;;;;;;26.23;50.83105;937.7732;;;;
2021/07/19 16:44:21;;;;;;;13.5;9.6;;;;;;;26.1;52.14063;937.8003;;;;
2021/07/19 16:46:48;;;;;;;10.4;6.2;;;;;;;26.21;50.875;937.8157;;;;
2021/07/19 16:49:13;;;;;;;9.6;5.6;;;;;;;26.32;51.14844;937.803;;;;
2021/07/19 16:51:39;;;;;;;10;5.4;;;;;;;26.3;50.79102;937.8194;;;;
2021/07/19 16:54:04;;;;;;;9.8;5.9;;;;;;;26.32;50.47461;937.8176;;;;
2021/07/19 16:56:29;;;;;;;8.8;5.1;;;;;;;26.09;51.12207;937.8325;;;;
2021/07/19 16:58:57;;;;;;;9.1;6.2;;;;;;;26.12;51.72852;937.7976;;;;
2021/07/19 17:01:22;;;;;;;35;19.5;;;;;;;25.78;52.18555;937.7581;;;;
2021/07/19 17:03:48;;;;;;;11.2;7.3;;;;;;;25.63;52.68848;937.7816;;;;
2021/07/19 17:06:13;;;;;;;10.2;6;;;;;;;25.62;53.07617;937.7697;;;;
2021/07/19 17:08:39;;;;;;;9.2;6.2;;;;;;;25.23;53.7041;937.7817;;;;
2021/07/19 17:11:04;;;;;;;10.3;6;;;;;;;25.29;53.85254;937.8195;;;;
2021/07/19 17:13:32;;;;;;;11.3;7.3;;;;;;;24.95;55.02637;937.8025;;;;
2021/07/19 17:15:59;;;;;;;9.7;6.4;;;;;;;24.93;55.05957;937.743;;;;
2021/07/19 17:18:31;;;;;;;11.2;6.2;;;;;;;25.07;54.93555;937.8306;;;;
2021/07/19 17:20:59;;;;;;;7.8;5.8;;;;;;;25.04;55.22559;937.7851;;;;
2021/07/19 17:23:30;;;;;;;8.9;5.4;;;;;;;25.08;55.03125;937.7489;;;;
2021/07/19 17:25:54;;;;;;;8.9;5.9;;;;;;;25.1;56.1543;937.7675;;;;
2021/07/19 17:28:20;;;;;;;8.9;6.1;;;;;;;24.58;57.00879;937.8066;;;;
2021/07/19 17:30:46;;;;;;;9.8;5.7;;;;;;;24.81;56.68457;937.7328;;;;
2021/07/19 17:33:15;;;;;;;7.1;5.2;;;;;;;24.75;56.72363;937.8189;;;;
2021/07/19 17:35:40;;;;;;;9.8;5.5;;;;;;;24.82;56.6377;937.7472;;;;
2021/07/19 17:38:10;;;;;;;11;5.8;;;;;;;24.76;57.8457;937.77;;;;
2021/07/19 17:40:38;;;;;;;8.9;5.4;;;;;;;24.51;57.9668;937.8407;;;;
2021/07/19 17:43:03;;;;;;;9.6;5.3;;;;;;;24.59;58.12988;937.86;;;;
2021/07/19 17:45:32;;;;;;;10;5.3;;;;;;;24.47;59.29199;937.8492;;;;
2021/07/19 17:48:00;;;;;;;11.3;5.8;;;;;;;24.44;58.40527;937.8008;;;;
2021/07/19 17:50:25;;;;;;;12.3;6;;;;;;;24.4;58.84668;937.7877;;;;
2021/07/19 17:52:51;;;;;;;10.6;6.2;;;;;;;24.25;58.59375;937.8247;;;;
2021/07/19 17:55:16;;;;;;;10.2;5.9;;;;;;;24.21;60.05957;937.8834;;;;
2021/07/19 17:57:43;;;;;;;9.7;6;;;;;;;24.18;59.99609;937.8254;;;;
2021/07/19 18:00:08;;;;;;;7.8;5.7;;;;;;;24.06;60.74512;937.9063;;;;
2021/07/19 18:02:35;;;;;;;8.6;5.8;;;;;;;23.83;62.45508;937.884;;;;
2021/07/19 18:05:00;;;;;;;11.2;6.9;;;;;;;23.76;62.26855;937.9095;;;;
2021/07/19 18:07:25;;;;;;;8;5.5;;;;;;;23.76;61.06836;937.9169;;;;
2021/07/19 18:09:51;;;;;;;10.4;6.3;;;;;;;23.75;61.42188;937.8414;;;;
2021/07/19 18:12:20;;;;;;;13;6.1;;;;;;;23.77;62.22266;937.9034;;;;
2021/07/19 18:14:45;;;;;;;11;6.5;;;;;;;23.78;63.50781;937.8753;;;;
2021/07/19 18:17:10;;;;;;;14.4;7.2;;;;;;;23.6;63.23535;937.9297;;;;
2021/07/19 18:19:35;;;;;;;14.6;8.5;;;;;;;23.35;64.29297;937.9613;;;;
2021/07/19 18:22:11;;;;;;;12.1;6.9;;;;;;;23.22;64.62695;938.0133;;;;
2021/07/19 18:24:33;;;;;;;10.5;7.2;;;;;;;23.1;65.45508;938.0245;;;;
2021/07/19 18:31:44;;;;;;;11.9;6.5;;;;;;;22.89;67.47949;937.9503;;;;
2021/07/19 18:34:09;;;;;;;9.3;6.7;;;;;;;22.95;66.78418;937.9619;;;;
2021/07/19 18:36:38;;;;;;;8.7;5.8;;;;;;;22.87;67.5459;938.0033;;;;
2021/07/19 18:39:07;;;;;;;9.5;5.7;;;;;;;22.74;68.08008;938.0349;;;;
2021/07/19 18:41:32;;;;;;;10;6;;;;;;;22.64;68.27441;938.1064;;;;
2021/07/19 18:44:00;;;;;;;8.9;6.4;;;;;;;22.56;68.23926;938.0666;;;;
2021/07/19 18:46:26;;;;;;;10.7;6;;;;;;;22.56;68.10938;938.0336;;;;
2021/07/19 18:48:51;;;;;;;12.8;6.7;;;;;;;22.56;68.17969;938.0497;;;;
2021/07/19 18:51:17;;;;;;;10.7;7;;;;;;;22.5;67.99707;938.1136;;;;
2021/07/19 18:53:42;;;;;;;10.5;6.4;;;;;;;22.54;68.44629;938.113;;;;
2021/07/19 18:56:08;;;;;;;11.2;6.4;;;;;;;22.44;69.13672;938.1253;;;;
2021/07/19 18:58:33;;;;;;;10.2;6.7;;;;;;;22.32;69.56445;938.1457;;;;
2021/07/19 19:01:00;;;;;;;10.9;7;;;;;;;22.25;69.30664;938.1458;;;;
2021/07/19 19:03:26;;;;;;;11.1;7.1;;;;;;;22.17;69.65723;938.1808;;;;
2021/07/19 19:05:53;;;;;;;9.9;6.9;;;;;;;22.06;70.07227;938.2278;;;;
2021/07/19 19:08:18;;;;;;;10.8;7.2;;;;;;;22;70.20313;938.2366;;;;
2021/07/19 19:10:45;;;;;;;12.7;7.5;;;;;;;21.94;70.10254;938.2458;;;;
2021/07/19 19:13:10;;;;;;;14;7.8;;;;;;;21.88;70.30176;938.2862;;;;
2021/07/19 19:15:35;;;;;;;12.1;7.8;;;;;;;21.78;70.00488;938.2738;;;;
2021/07/19 19:18:01;;;;;;;12.1;8.2;;;;;;;21.71;71.13086;938.2844;;;;
2021/07/19 19:20:32;;;;;;;14.5;8.2;;;;;;;21.73;71.84863;938.358;;;;
2021/07/19 19:22:57;;;;;;;12.8;7.9;;;;;;;21.61;72.6377;938.3667;;;;
2021/07/19 19:25:23;;;;;;;11.8;7.7;;;;;;;21.44;73.50977;938.4008;;;;
2021/07/19 19:27:49;;;;;;;13.1;7.9;;;;;;;21.22;74.24707;938.4822;;;;
2021/07/19 19:30:18;;;;;;;10.5;7.9;;;;;;;21.13;74.66309;938.4752;;;;
2021/07/19 19:32:47;;;;;;;13.9;9.2;;;;;;;21.05;73.08398;938.5284;;;;
2021/07/19 19:35:13;;;;;;;14.1;9.9;;;;;;;20.89;72.00488;938.5372;;;;
2021/07/19 19:37:38;;;;;;;14.2;9;;;;;;;20.79;73.21582;938.5818;;;;
2021/07/19 19:40:03;;;;;;;13.7;7.9;;;;;;;20.63;73.58691;938.5834;;;;
2021/07/19 19:42:30;;;;;;;10.7;7.4;;;;;;;20.33;76.46777;938.5643;;;;
2021/07/19 19:44:55;;;;;;;10.7;8.5;;;;;;;20.25;75.55469;938.6578;;;;
2021/07/19 19:47:22;;;;;;;14.8;8;;;;;;;20.14;75.40625;938.6558;;;;
2021/07/19 19:49:47;;;;;;;16.9;8.6;;;;;;;19.81;77.53125;938.6265;;;;
2021/07/19 19:52:15;;;;;;;11.2;8.1;;;;;;;19.76;78;938.6577;;;;
2021/07/19 19:54:40;;;;;;;16;9.3;;;;;;;19.69;77.30078;938.653;;;;
2021/07/19 19:57:07;;;;;;;13.4;9.5;;;;;;;19.59;78.54395;938.6744;;;;
2021/07/19 19:59:32;;;;;;;14.4;9.3;;;;;;;19.59;78.40332;938.7133;;;;
2021/07/19 20:02:00;;;;;;;11.8;8.9;;;;;;;19.43;80.26172;938.7234;;;;
2021/07/19 20:04:25;;;;;;;11.5;8.7;;;;;;;19.44;80.1582;938.6997;;;;
2021/07/19 20:06:52;;;;;;;12.3;8.4;;;;;;;19.64;79.23828;938.7068;;;;
2021/07/19 20:09:17;;;;;;;14.1;9;;;;;;;19.65;79.20703;938.7969;;;;
2021/07/19 20:11:45;;;;;;;15.6;9;;;;;;;19.58;76.1748;938.7732;;;;
2021/07/19 20:14:10;;;;;;;13.5;9.2;;;;;;;19.54;77.77539;938.8373;;;;
2021/07/19 20:16:40;;;;;;;13.6;9.5;;;;;;;19.4;78.64844;938.8731;;;;
2021/07/19 20:19:06;;;;;;;11.6;9.2;;;;;;;19.46;79.05469;938.8842;;;;
2021/07/19 20:21:31;;;;;;;13.6;9.3;;;;;;;19.48;78.84863;938.9467;;;;
2021/07/19 20:24:01;;;;;;;16;10.1;;;;;;;19.37;78.95898;938.9295;;;;
2021/07/19 20:26:26;;;;;;;14.4;11;;;;;;;19.29;79.8291;938.9507;;;;
2021/07/19 20:28:55;;;;;;;15.3;11.4;;;;;;;19.34;80.03516;938.9498;;;;
2021/07/19 20:31:20;;;;;;;16.3;10.5;;;;;;;19.37;78.55078;938.9821;;;;
2021/07/19 20:33:49;;;;;;;15.3;10.7;;;;;;;19.39;78.05176;939.0132;;;;
2021/07/19 20:36:14;;;;;;;14;9.9;;;;;;;19.32;78.30859;939.0164;;;;
2021/07/19 20:38:40;;;;;;;17.8;10;;;;;;;19.21;78.25195;938.9791;;;;
2021/07/19 20:41:06;;;;;;;16;9.9;;;;;;;19.18;78.52734;938.9822;;;;
2021/07/19 20:43:31;;;;;;;12.5;9.7;;;;;;;18.93;80.07813;938.93;;;;
2021/07/19 20:46:01;;;;;;;15.4;9.8;;;;;;;18.77;80.98145;938.9911;;;;
2021/07/19 20:48:29;;;;;;;12.3;9.5;;;;;;;18.82;81.37305;939.0623;;;;
2021/07/19 20:50:56;;;;;;;13;9.1;;;;;;;18.87;81.0332;939.0685;;;;
2021/07/19 20:53:21;;;;;;;13.8;9.4;;;;;;;18.93;80.68359;939.0527;;;;
2021/07/19 20:55:46;;;;;;;14.1;9.4;;;;;;;18.97;80.67871;939.0825;;;;
2021/07/19 20:58:14;;;;;;;11.7;9.8;;;;;;;19;81.39551;939.1044;;;;
2021/07/19 21:00:37;;;;;;;16.6;10.4;;;;;;;19.2;81.39551;939.1505;;;;
2021/07/19 21:03:04;;;;;;;15.5;9.9;;;;;;;19.21;81.60645;939.1163;;;;
2021/07/19 21:05:29;;;;;;;13;9.7;;;;;;;19.09;82.21484;939.0535;;;;
2021/07/19 21:07:58;;;;;;;11.8;9.2;;;;;;;19.11;82.28809;939.1015;;;;
2021/07/19 21:10:27;;;;;;;12.2;9.3;;;;;;;19.07;82.32813;939.2033;;;;
2021/07/19 21:12:52;;;;;;;13.4;9.8;;;;;;;19.05;82.27539;939.1853;;;;
2021/07/19 21:15:28;;;;;;;11.5;9.2;;;;;;;19.04;81.82129;939.129;;;;
2021/07/19 21:17:55;;;;;;;12.9;10.2;;;;;;;19.04;81.43652;939.0772;;;;
2021/07/19 21:20:25;;;;;;;14.5;9.6;;;;;;;19.03;81.63281;939.1275;;;;
2021/07/19 21:22:50;;;;;;;12.8;8.9;;;;;;;19.09;81.70313;939.1625;;;;
2021/07/19 21:25:19;;;;;;;13.3;9.3;;;;;;;18.95;82.45605;939.1531;;;;
2021/07/19 21:27:44;;;;;;;13.2;9.7;;;;;;;18.96;82.04004;939.1085;;;;
2021/07/19 21:30:16;;;;;;;13;9.5;;;;;;;18.89;82.37402;939.0865;;;;
2021/07/19 21:32:42;;;;;;;12.1;9.1;;;;;;;18.78;82.6582;939.0951;;;;
2021/07/19 21:35:07;;;;;;;12.7;9.9;;;;;;;18.73;80.87988;939.0784;;;;
2021/07/19 21:37:33;;;;;;;11.8;9.6;;;;;;;18.78;81.2041;939.1064;;;;
2021/07/19 21:39:58;;;;;;;12.9;9.7;;;;;;;18.92;81.48535;939.1351;;;;
2021/07/19 21:42:27;;;;;;;14;9.8;;;;;;;18.83;82.22461;939.1896;;;;
2021/07/19 21:44:52;;;;;;;13.1;9.8;;;;;;;18.87;82.21973;939.1694;;;;
2021/07/19 21:47:18;;;;;;;13.6;9.6;;;;;;;18.82;82.30273;939.0669;;;;
2021/07/19 21:49:42;;;;;;;16.6;9.9;;;;;;;18.87;81.85938;939.1476;;;;
2021/07/19 21:52:10;;;;;;;12.2;9.6;;;;;;;18.72;82.14453;939.1788;;;;
2021/07/19 21:54:35;;;;;;;12.5;10.1;;;;;;;18.71;82.27051;939.1781;;;;
2021/07/19 21:57:03;;;;;;;15.5;10.3;;;;;;;18.69;81.02246;939.2026;;;;
2021/07/19 21:59:26;;;;;;;13;10;;;;;;;18.69;81.01074;939.1978;;;;
2021/07/19 22:01:54;;;;;;;14.8;10.6;;;;;;;18.68;80.5791;939.1746;;;;